Portada
METAR-TAF:

METAR-TAF

Aeropuertos :

Aeropuerto de Oslo-Gardermoen

Oslo, Noruega

latitud: 60-12N, longitud: 011-05E, altitud: 208 m

Observación

El informe se hizo hace 17 minutos, a las 01:50 UTC
Viento 3 kt del norte-noreste
Temperatura 6°C
Humedad 75%
Presión 1031 hPa
Visibilidad 10 km o más
sin nubes por debajo de 1500 m y sin presencia de cumulonimbus.

METAR: ENGM 290150Z 03003KT CAVOK 06/02 Q1031

Hora: 04:07 (02:07 UTC)

Pronóstico

Pronóstico válido del 29 a las 00 UTC al 29 a las 24 UTC
Viento 5 kt con dirección variable
Visibilidad 10 km o más
sin nubes por debajo de 1500 m y sin presencia de cumulonimbus.
Probabilidad 40%
del 29 a las 14 UTC al 29 a las 18 UTC
Viento 10 kt del norte

TAF: ENGM 2900/2924 VRB05KT CAVOK PROB40 2914/2918 36010KT

Observaciones y pronósticos meteorológicos de más de 4000 aeropuertos (mensajes METAR y TAF).

Los puntos amarillos y rojos representan las estaciones disponibles.

Ponga el ratón en el punto deseado para ver el nombre de la estación.

Haga clic para ver las observaciones y los pronósticos meteorológicos.

Para cambiar el mapa : haga clic en los botones verdes con una cruz de color negro para hacer un zoom, en el botón verde con un guión para alejar o en las flechas verdes para mapas adyacentes.


METAR-TAF: